Monday, January 22, 2018, 9:08 AM EST
Back to Local

KFOK, The Gabreski Airport

Location: East Quogue, NY, United States Lat: 40.85
Local Time: 9:08 AM EST (14:08 GMT) Lon: -72.617
Time Zone: US/Eastern Elev: 65 ft

Show me the last for .
Show Decoded

2018-01-22 08:53 METAR KFOK 221353Z 00000KT 10SM FEW032 BKN050 OVC095 07/06 A3022 RMK AO2 SLP233
                 T00720056 =
2018-01-22 07:53 METAR KFOK 221253Z 13004KT 9SM OVC040 07/04 A3020 RMK AO2 SLP226 T00670044 =
2018-01-22 06:53 METAR KFOK 221153Z AUTO 13006KT 10SM OVC034 07/04 A3019 RMK AO2 SLP222 60001
                 70001 T00670044 10067 20028 53004 =
2018-01-22 05:53 METAR KFOK 221053Z AUTO 14007KT 10SM SCT032 OVC045 06/04 A3017 RMK AO2
                 RAE04B41E50 SLP218 P0000 T00610044 =
2018-01-22 04:53 METAR KFOK 220953Z AUTO 14006KT 8SM -RA BKN050 OVC060 06/04 A3017 RMK AO2
                 RAE09B26 SLP215 P0000 T00610039 =
2018-01-22 03:53 METAR KFOK 220853Z AUTO 13003KT 6SM -RA BR SCT043 OVC050 04/03 A3017 RMK AO2
                 RAE16B52 SLP218 P0000 60001 T00440028 58008 =
2018-01-22 02:53 METAR KFOK 220753Z AUTO 00000KT 6SM -RA BR BKN049 OVC065 04/02 A3018 RMK AO2
                 SLP221 P0001 T00390022 =
2018-01-22 01:53 METAR KFOK 220653Z AUTO 13003KT 6SM -RA BR OVC044 04/02 A3019 RMK AO2 RAB0559
                 SLP224 P0000 T00390017 =
2018-01-22 00:53 METAR KFOK 220553Z AUTO 00000KT 10SM OVC040 02/M01 A3020 RMK AO2 RAB22E36 SLP226
                 P0000 60000 T00221006 10028 21033 58005 =
2018-01-21 23:53 METAR KFOK 220453Z AUTO 00000KT 10SM OVC032 02/M01 A3021 RMK AO2 SLP229
                 T00221011 400891061 =
2018-01-21 22:53 METAR KFOK 220353Z 00000KT 10SM OVC032 01/M02 A3021 RMK AO2 SLP231 T00111022 =
2018-01-21 21:53 METAR KFOK 220253Z 00000KT 10SM OVC044 00/M03 A3021 RMK AO2 SLP231 T00001028
                 53001 =
2018-01-21 20:53 METAR KFOK 220153Z 00000KT 10SM BKN055 M02/M06 A3021 RMK AO2 SLP232 T10221056 =
2018-01-21 19:53 METAR KFOK 220053Z 00000KT 10SM CLR M03/M06 A3021 RMK AO2 SLP229 T10281061 =
2018-01-21 18:53 METAR KFOK 212353Z 00000KT 10SM CLR M03/M06 A3021 RMK AO2 SLP230 T10281056 10089
                 21028 53016 =
2018-01-21 17:53 METAR KFOK 212253Z 00000KT 10SM CLR M01/M06 A3019 RMK AO2 SLP224 T10111056 =
2018-01-21 16:53 METAR KFOK 212153Z 00000KT 10SM CLR 03/M03 A3018 RMK AO2 SLP219 T00281028 =
2018-01-21 15:53 METAR KFOK 212053Z 19004KT 10SM CLR 07/M01 A3016 RMK AO2 SLP215 T00671011 53005
                 =
2018-01-21 14:53 METAR KFOK 211953Z 34005KT 10SM CLR 09/M02 A3015 RMK AO2 SLP211 T00891022 =
2018-01-21 13:53 METAR KFOK 211853Z 00000KT 10SM CLR 09/M02 A3015 RMK AO2 SLP208 T00891022 =
2018-01-21 12:53 METAR KFOK 211753Z 02007KT 10SM CLR 08/M02 A3015 RMK AO2 SLP210 T00831022 10089
                 21061 58015 =
2018-01-21 11:53 METAR KFOK 211653Z 33006KT 10SM CLR 08/M02 A3017 RMK AO2 SLP216 T00781022 =
2018-01-21 10:53 METAR KFOK 211553Z 35006KT 10SM CLR 08/M02 A3018 RMK AO2 SLP221 T00831022 =
2018-01-21 09:53 METAR KFOK 211453Z 34008KT 10SM CLR 07/M01 A3019 RMK AO2 SLP224 T00721011 51015
                 =

Support USWX by starting your Amazon purchase here.